sensor_id;sensor_type;location;lat;lon;timestamp;P1;durP1;ratioP1;P2;durP2;ratioP2
3189;SDS011;1606;51.946;10.558;2024-02-21T00:02:22;21.63;;;6.50;;
3189;SDS011;1606;51.946;10.558;2024-02-21T00:04:49;14.30;;;5.90;;
3189;SDS011;1606;51.946;10.558;2024-02-21T00:07:18;15.33;;;7.37;;
3189;SDS011;1606;51.946;10.558;2024-02-21T00:09:46;15.93;;;6.80;;
3189;SDS011;1606;51.946;10.558;2024-02-21T00:12:14;13.03;;;5.80;;
3189;SDS011;1606;51.946;10.558;2024-02-21T00:14:44;16.50;;;7.63;;
3189;SDS011;1606;51.946;10.558;2024-02-21T00:17:12;18.80;;;6.83;;
3189;SDS011;1606;51.946;10.558;2024-02-21T00:19:40;19.23;;;6.33;;
3189;SDS011;1606;51.946;10.558;2024-02-21T00:22:08;22.23;;;8.50;;
3189;SDS011;1606;51.946;10.558;2024-02-21T00:24:36;15.00;;;6.30;;
3189;SDS011;1606;51.946;10.558;2024-02-21T00:27:04;17.80;;;6.07;;
3189;SDS011;1606;51.946;10.558;2024-02-21T00:29:32;17.30;;;5.90;;
3189;SDS011;1606;51.946;10.558;2024-02-21T00:32:02;15.10;;;6.10;;
3189;SDS011;1606;51.946;10.558;2024-02-21T00:34:30;12.40;;;5.10;;
3189;SDS011;1606;51.946;10.558;2024-02-21T00:36:58;13.73;;;4.70;;
3189;SDS011;1606;51.946;10.558;2024-02-21T00:39:26;18.80;;;5.07;;
3189;SDS011;1606;51.946;10.558;2024-02-21T00:41:54;13.07;;;4.73;;
3189;SDS011;1606;51.946;10.558;2024-02-21T00:44:22;9.80;;;5.80;;
3189;SDS011;1606;51.946;10.558;2024-02-21T00:46:49;10.63;;;4.63;;
3189;SDS011;1606;51.946;10.558;2024-02-21T00:49:20;11.23;;;4.50;;
3189;SDS011;1606;51.946;10.558;2024-02-21T00:51:48;11.30;;;5.57;;
3189;SDS011;1606;51.946;10.558;2024-02-21T00:54:16;16.77;;;6.53;;
3189;SDS011;1606;51.946;10.558;2024-02-21T00:56:44;17.80;;;5.60;;
3189;SDS011;1606;51.946;10.558;2024-02-21T00:59:11;17.33;;;5.60;;
3189;SDS011;1606;51.946;10.558;2024-02-21T01:01:39;13.77;;;6.23;;
3189;SDS011;1606;51.946;10.558;2024-02-21T01:04:08;15.70;;;6.40;;
3189;SDS011;1606;51.946;10.558;2024-02-21T01:06:38;17.60;;;6.50;;
3189;SDS011;1606;51.946;10.558;2024-02-21T01:09:09;13.60;;;5.80;;
3189;SDS011;1606;51.946;10.558;2024-02-21T01:11:37;12.80;;;5.83;;
3189;SDS011;1606;51.946;10.558;2024-02-21T01:14:04;22.17;;;7.47;;
3189;SDS011;1606;51.946;10.558;2024-02-21T01:16:32;18.37;;;7.50;;
3189;SDS011;1606;51.946;10.558;2024-02-21T01:19:00;18.27;;;6.67;;
3189;SDS011;1606;51.946;10.558;2024-02-21T01:21:28;16.60;;;6.30;;
3189;SDS011;1606;51.946;10.558;2024-02-21T01:23:57;15.40;;;7.30;;
3189;SDS011;1606;51.946;10.558;2024-02-21T01:26:25;17.47;;;8.07;;
3189;SDS011;1606;51.946;10.558;2024-02-21T01:28:53;19.30;;;6.57;;
3189;SDS011;1606;51.946;10.558;2024-02-21T01:31:21;14.00;;;7.73;;
3189;SDS011;1606;51.946;10.558;2024-02-21T01:33:49;17.30;;;7.73;;
3189;SDS011;1606;51.946;10.558;2024-02-21T01:36:17;16.20;;;7.00;;
3189;SDS011;1606;51.946;10.558;2024-02-21T01:38:45;17.90;;;8.27;;
3189;SDS011;1606;51.946;10.558;2024-02-21T01:41:14;15.77;;;9.10;;
3189;SDS011;1606;51.946;10.558;2024-02-21T01:43:42;22.50;;;8.33;;
3189;SDS011;1606;51.946;10.558;2024-02-21T01:46:11;18.60;;;8.40;;
3189;SDS011;1606;51.946;10.558;2024-02-21T01:48:39;21.77;;;8.63;;
3189;SDS011;1606;51.946;10.558;2024-02-21T01:51:07;21.00;;;8.40;;
3189;SDS011;1606;51.946;10.558;2024-02-21T01:53:36;35.93;;;8.33;;
3189;SDS011;1606;51.946;10.558;2024-02-21T01:56:08;19.07;;;7.40;;
3189;SDS011;1606;51.946;10.558;2024-02-21T01:58:38;15.17;;;7.47;;
3189;SDS011;1606;51.946;10.558;2024-02-21T02:01:09;17.70;;;7.60;;
3189;SDS011;1606;51.946;10.558;2024-02-21T02:03:37;19.87;;;7.10;;
3189;SDS011;1606;51.946;10.558;2024-02-21T02:06:05;21.57;;;8.90;;
3189;SDS011;1606;51.946;10.558;2024-02-21T02:08:33;23.40;;;9.57;;
3189;SDS011;1606;51.946;10.558;2024-02-21T02:11:01;18.87;;;8.10;;
3189;SDS011;1606;51.946;10.558;2024-02-21T02:13:30;20.57;;;9.93;;
3189;SDS011;1606;51.946;10.558;2024-02-21T02:15:59;18.70;;;8.33;;
3189;SDS011;1606;51.946;10.558;2024-02-21T02:18:27;15.50;;;9.07;;
3189;SDS011;1606;51.946;10.558;2024-02-21T02:20:57;20.43;;;8.83;;
3189;SDS011;1606;51.946;10.558;2024-02-21T02:23:26;23.13;;;9.90;;
3189;SDS011;1606;51.946;10.558;2024-02-21T02:25:56;19.10;;;8.30;;
3189;SDS011;1606;51.946;10.558;2024-02-21T02:28:24;25.57;;;9.43;;
3189;SDS011;1606;51.946;10.558;2024-02-21T02:30:52;15.20;;;8.40;;
3189;SDS011;1606;51.946;10.558;2024-02-21T02:33:20;24.33;;;9.20;;
3189;SDS011;1606;51.946;10.558;2024-02-21T02:35:49;22.53;;;10.60;;
3189;SDS011;1606;51.946;10.558;2024-02-21T02:38:16;19.40;;;9.03;;
3189;SDS011;1606;51.946;10.558;2024-02-21T02:40:46;19.63;;;8.90;;
3189;SDS011;1606;51.946;10.558;2024-02-21T02:43:14;23.37;;;11.17;;
3189;SDS011;1606;51.946;10.558;2024-02-21T02:45:43;22.90;;;10.20;;
3189;SDS011;1606;51.946;10.558;2024-02-21T02:48:10;18.70;;;9.83;;
3189;SDS011;1606;51.946;10.558;2024-02-21T02:50:38;19.00;;;9.60;;
3189;SDS011;1606;51.946;10.558;2024-02-21T02:53:06;21.47;;;9.60;;
3189;SDS011;1606;51.946;10.558;2024-02-21T02:55:34;24.70;;;10.37;;
3189;SDS011;1606;51.946;10.558;2024-02-21T02:58:04;17.53;;;9.00;;
3189;SDS011;1606;51.946;10.558;2024-02-21T03:00:31;20.43;;;10.20;;
3189;SDS011;1606;51.946;10.558;2024-02-21T03:03:02;21.73;;;9.63;;
3189;SDS011;1606;51.946;10.558;2024-02-21T03:05:31;20.70;;;9.20;;
3189;SDS011;1606;51.946;10.558;2024-02-21T03:07:59;18.77;;;9.53;;
3189;SDS011;1606;51.946;10.558;2024-02-21T03:10:27;22.90;;;10.23;;
3189;SDS011;1606;51.946;10.558;2024-02-21T03:12:55;22.83;;;10.70;;
3189;SDS011;1606;51.946;10.558;2024-02-21T03:15:24;19.63;;;10.50;;
3189;SDS011;1606;51.946;10.558;2024-02-21T03:17:52;17.03;;;9.80;;
3189;SDS011;1606;51.946;10.558;2024-02-21T03:20:20;22.10;;;10.70;;
3189;SDS011;1606;51.946;10.558;2024-02-21T03:22:48;18.73;;;9.87;;
3189;SDS011;1606;51.946;10.558;2024-02-21T03:25:16;20.20;;;10.63;;
3189;SDS011;1606;51.946;10.558;2024-02-21T03:27:43;22.20;;;11.67;;
3189;SDS011;1606;51.946;10.558;2024-02-21T03:30:11;21.67;;;10.77;;
3189;SDS011;1606;51.946;10.558;2024-02-21T03:32:41;22.43;;;11.37;;
3189;SDS011;1606;51.946;10.558;2024-02-21T03:35:09;24.40;;;11.10;;
3189;SDS011;1606;51.946;10.558;2024-02-21T03:37:37;24.13;;;11.60;;
3189;SDS011;1606;51.946;10.558;2024-02-21T03:40:06;22.33;;;10.30;;
3189;SDS011;1606;51.946;10.558;2024-02-21T03:42:35;22.07;;;11.40;;
3189;SDS011;1606;51.946;10.558;2024-02-21T03:45:05;20.53;;;10.73;;
3189;SDS011;1606;51.946;10.558;2024-02-21T03:47:34;22.00;;;11.10;;
3189;SDS011;1606;51.946;10.558;2024-02-21T03:50:03;26.93;;;12.30;;
3189;SDS011;1606;51.946;10.558;2024-02-21T03:52:32;20.23;;;10.57;;
3189;SDS011;1606;51.946;10.558;2024-02-21T03:55:00;18.70;;;10.30;;
3189;SDS011;1606;51.946;10.558;2024-02-21T03:57:28;19.03;;;11.10;;
3189;SDS011;1606;51.946;10.558;2024-02-21T03:59:55;22.70;;;11.93;;
3189;SDS011;1606;51.946;10.558;2024-02-21T04:02:23;20.30;;;11.43;;
3189;SDS011;1606;51.946;10.558;2024-02-21T04:04:51;18.93;;;11.30;;
3189;SDS011;1606;51.946;10.558;2024-02-21T04:07:20;21.93;;;11.70;;
3189;SDS011;1606;51.946;10.558;2024-02-21T04:09:48;21.17;;;11.70;;
3189;SDS011;1606;51.946;10.558;2024-02-21T04:12:16;24.33;;;11.33;;
3189;SDS011;1606;51.946;10.558;2024-02-21T04:14:44;21.23;;;11.50;;
3189;SDS011;1606;51.946;10.558;2024-02-21T04:17:12;19.07;;;10.03;;
3189;SDS011;1606;51.946;10.558;2024-02-21T04:19:43;16.53;;;11.20;;
3189;SDS011;1606;51.946;10.558;2024-02-21T04:22:11;23.47;;;12.80;;
3189;SDS011;1606;51.946;10.558;2024-02-21T04:24:40;25.13;;;11.70;;
3189;SDS011;1606;51.946;10.558;2024-02-21T04:27:07;19.37;;;11.07;;
3189;SDS011;1606;51.946;10.558;2024-02-21T04:29:35;21.93;;;11.27;;
3189;SDS011;1606;51.946;10.558;2024-02-21T04:32:03;20.10;;;10.63;;
3189;SDS011;1606;51.946;10.558;2024-02-21T04:34:32;24.30;;;12.57;;
3189;SDS011;1606;51.946;10.558;2024-02-21T04:37:00;20.17;;;11.20;;
3189;SDS011;1606;51.946;10.558;2024-02-21T04:39:28;22.00;;;11.73;;
3189;SDS011;1606;51.946;10.558;2024-02-21T04:41:57;25.20;;;12.93;;
3189;SDS011;1606;51.946;10.558;2024-02-21T04:44:25;22.07;;;12.30;;
3189;SDS011;1606;51.946;10.558;2024-02-21T04:46:53;32.50;;;12.33;;
3189;SDS011;1606;51.946;10.558;2024-02-21T04:49:21;22.17;;;10.20;;
3189;SDS011;1606;51.946;10.558;2024-02-21T04:51:49;19.33;;;11.10;;
3189;SDS011;1606;51.946;10.558;2024-02-21T04:54:17;18.70;;;9.30;;
3189;SDS011;1606;51.946;10.558;2024-02-21T04:56:44;20.30;;;10.13;;
3189;SDS011;1606;51.946;10.558;2024-02-21T04:59:16;20.27;;;10.90;;
3189;SDS011;1606;51.946;10.558;2024-02-21T05:01:44;16.07;;;10.47;;
3189;SDS011;1606;51.946;10.558;2024-02-21T05:04:12;23.20;;;10.73;;
3189;SDS011;1606;51.946;10.558;2024-02-21T05:06:40;20.63;;;10.20;;
3189;SDS011;1606;51.946;10.558;2024-02-21T05:09:09;23.90;;;11.40;;
3189;SDS011;1606;51.946;10.558;2024-02-21T05:11:37;31.83;;;11.50;;
3189;SDS011;1606;51.946;10.558;2024-02-21T05:14:06;18.50;;;11.30;;
3189;SDS011;1606;51.946;10.558;2024-02-21T05:16:35;16.53;;;9.90;;
3189;SDS011;1606;51.946;10.558;2024-02-21T05:19:03;27.10;;;11.90;;
3189;SDS011;1606;51.946;10.558;2024-02-21T05:21:31;18.40;;;9.87;;
3189;SDS011;1606;51.946;10.558;2024-02-21T05:23:59;19.83;;;10.20;;
3189;SDS011;1606;51.946;10.558;2024-02-21T05:26:27;17.80;;;9.90;;
3189;SDS011;1606;51.946;10.558;2024-02-21T05:28:55;18.60;;;10.27;;
3189;SDS011;1606;51.946;10.558;2024-02-21T05:31:25;17.83;;;11.40;;
3189;SDS011;1606;51.946;10.558;2024-02-21T05:33:54;19.80;;;10.67;;
3189;SDS011;1606;51.946;10.558;2024-02-21T05:36:25;17.83;;;10.60;;
3189;SDS011;1606;51.946;10.558;2024-02-21T05:38:54;19.57;;;9.77;;
3189;SDS011;1606;51.946;10.558;2024-02-21T05:41:23;22.77;;;10.27;;
3189;SDS011;1606;51.946;10.558;2024-02-21T05:43:51;23.67;;;8.90;;
3189;SDS011;1606;51.946;10.558;2024-02-21T05:46:19;13.90;;;8.70;;
3189;SDS011;1606;51.946;10.558;2024-02-21T05:48:47;17.00;;;8.40;;
3189;SDS011;1606;51.946;10.558;2024-02-21T05:51:16;21.23;;;9.13;;
3189;SDS011;1606;51.946;10.558;2024-02-21T05:53:44;19.30;;;9.57;;
3189;SDS011;1606;51.946;10.558;2024-02-21T05:56:12;17.83;;;9.93;;
3189;SDS011;1606;51.946;10.558;2024-02-21T05:58:40;13.87;;;8.03;;
3189;SDS011;1606;51.946;10.558;2024-02-21T06:01:08;19.53;;;10.13;;
3189;SDS011;1606;51.946;10.558;2024-02-21T06:03:36;18.67;;;8.97;;
3189;SDS011;1606;51.946;10.558;2024-02-21T06:06:04;20.53;;;9.80;;
3189;SDS011;1606;51.946;10.558;2024-02-21T06:08:34;27.10;;;12.10;;
3189;SDS011;1606;51.946;10.558;2024-02-21T06:11:01;18.00;;;9.20;;
3189;SDS011;1606;51.946;10.558;2024-02-21T06:13:29;19.97;;;9.57;;
3189;SDS011;1606;51.946;10.558;2024-02-21T06:15:57;26.30;;;10.80;;
3189;SDS011;1606;51.946;10.558;2024-02-21T06:18:25;19.10;;;10.60;;
3189;SDS011;1606;51.946;10.558;2024-02-21T06:20:53;22.67;;;9.30;;
3189;SDS011;1606;51.946;10.558;2024-02-21T06:23:21;17.83;;;8.80;;
3189;SDS011;1606;51.946;10.558;2024-02-21T06:25:50;19.83;;;11.10;;
3189;SDS011;1606;51.946;10.558;2024-02-21T06:28:18;22.97;;;10.13;;
3189;SDS011;1606;51.946;10.558;2024-02-21T06:30:46;23.00;;;11.10;;
3189;SDS011;1606;51.946;10.558;2024-02-21T06:33:14;17.43;;;10.00;;
3189;SDS011;1606;51.946;10.558;2024-02-21T06:35:42;17.63;;;9.10;;
3189;SDS011;1606;51.946;10.558;2024-02-21T06:38:13;22.90;;;9.93;;
3189;SDS011;1606;51.946;10.558;2024-02-21T06:40:43;19.13;;;9.43;;
3189;SDS011;1606;51.946;10.558;2024-02-21T06:43:18;18.30;;;10.33;;
3189;SDS011;1606;51.946;10.558;2024-02-21T06:45:46;26.00;;;10.43;;
3189;SDS011;1606;51.946;10.558;2024-02-21T06:48:17;24.57;;;9.93;;
3189;SDS011;1606;51.946;10.558;2024-02-21T06:50:46;24.47;;;11.23;;
3189;SDS011;1606;51.946;10.558;2024-02-21T06:53:14;22.67;;;10.23;;
3189;SDS011;1606;51.946;10.558;2024-02-21T06:55:41;17.23;;;10.07;;
3189;SDS011;1606;51.946;10.558;2024-02-21T06:58:09;20.43;;;10.27;;
3189;SDS011;1606;51.946;10.558;2024-02-21T07:00:40;23.33;;;10.20;;
3189;SDS011;1606;51.946;10.558;2024-02-21T07:03:09;20.77;;;10.83;;
3189;SDS011;1606;51.946;10.558;2024-02-21T07:05:37;24.50;;;9.73;;
3189;SDS011;1606;51.946;10.558;2024-02-21T07:08:05;20.43;;;10.13;;
3189;SDS011;1606;51.946;10.558;2024-02-21T07:10:33;21.80;;;9.80;;
3189;SDS011;1606;51.946;10.558;2024-02-21T07:13:01;24.43;;;10.67;;
3189;SDS011;1606;51.946;10.558;2024-02-21T07:15:29;20.23;;;9.60;;
3189;SDS011;1606;51.946;10.558;2024-02-21T07:17:59;20.60;;;10.47;;
3189;SDS011;1606;51.946;10.558;2024-02-21T07:20:27;25.13;;;10.30;;
3189;SDS011;1606;51.946;10.558;2024-02-21T07:22:55;22.93;;;10.70;;
3189;SDS011;1606;51.946;10.558;2024-02-21T07:25:23;22.13;;;9.77;;
3189;SDS011;1606;51.946;10.558;2024-02-21T07:27:51;16.23;;;9.20;;
3189;SDS011;1606;51.946;10.558;2024-02-21T07:30:19;20.90;;;9.30;;
3189;SDS011;1606;51.946;10.558;2024-02-21T07:32:48;21.00;;;10.00;;
3189;SDS011;1606;51.946;10.558;2024-02-21T07:35:18;22.37;;;9.83;;
3189;SDS011;1606;51.946;10.558;2024-02-21T07:37:46;34.20;;;11.40;;
3189;SDS011;1606;51.946;10.558;2024-02-21T07:40:14;18.70;;;9.20;;
3189;SDS011;1606;51.946;10.558;2024-02-21T07:42:43;17.50;;;9.57;;
3189;SDS011;1606;51.946;10.558;2024-02-21T07:45:16;27.83;;;10.30;;
3189;SDS011;1606;51.946;10.558;2024-02-21T07:47:44;21.50;;;9.60;;
3189;SDS011;1606;51.946;10.558;2024-02-21T07:50:12;19.40;;;10.60;;
3189;SDS011;1606;51.946;10.558;2024-02-21T07:52:42;19.10;;;9.10;;
3189;SDS011;1606;51.946;10.558;2024-02-21T07:55:10;26.23;;;10.63;;
3189;SDS011;1606;51.946;10.558;2024-02-21T07:57:37;21.53;;;10.50;;
3189;SDS011;1606;51.946;10.558;2024-02-21T08:00:06;24.40;;;10.30;;
3189;SDS011;1606;51.946;10.558;2024-02-21T08:02:35;26.23;;;8.37;;
3189;SDS011;1606;51.946;10.558;2024-02-21T08:05:04;20.77;;;8.90;;
3189;SDS011;1606;51.946;10.558;2024-02-21T08:07:32;21.40;;;9.63;;
3189;SDS011;1606;51.946;10.558;2024-02-21T08:10:02;18.93;;;9.97;;
3189;SDS011;1606;51.946;10.558;2024-02-21T08:12:30;24.70;;;8.73;;
3189;SDS011;1606;51.946;10.558;2024-02-21T08:14:59;21.40;;;9.10;;
3189;SDS011;1606;51.946;10.558;2024-02-21T08:17:27;15.63;;;8.83;;
3189;SDS011;1606;51.946;10.558;2024-02-21T08:19:54;17.90;;;7.73;;
3189;SDS011;1606;51.946;10.558;2024-02-21T08:22:23;20.60;;;10.17;;
3189;SDS011;1606;51.946;10.558;2024-02-21T08:24:52;15.20;;;8.40;;
3189;SDS011;1606;51.946;10.558;2024-02-21T08:27:24;15.50;;;6.50;;
3189;SDS011;1606;51.946;10.558;2024-02-21T08:29:52;17.40;;;8.53;;
3189;SDS011;1606;51.946;10.558;2024-02-21T08:32:19;22.60;;;8.70;;
3189;SDS011;1606;51.946;10.558;2024-02-21T08:34:47;14.60;;;7.77;;
3189;SDS011;1606;51.946;10.558;2024-02-21T08:37:16;15.73;;;7.63;;
3189;SDS011;1606;51.946;10.558;2024-02-21T08:39:47;16.30;;;7.40;;
3189;SDS011;1606;51.946;10.558;2024-02-21T08:42:16;16.63;;;7.50;;
3189;SDS011;1606;51.946;10.558;2024-02-21T08:44:45;14.93;;;8.20;;
3189;SDS011;1606;51.946;10.558;2024-02-21T08:47:13;20.77;;;7.60;;
3189;SDS011;1606;51.946;10.558;2024-02-21T08:49:41;16.30;;;7.93;;
3189;SDS011;1606;51.946;10.558;2024-02-21T08:52:10;22.63;;;8.40;;
3189;SDS011;1606;51.946;10.558;2024-02-21T08:54:38;16.00;;;8.03;;
3189;SDS011;1606;51.946;10.558;2024-02-21T08:57:06;14.67;;;8.17;;
3189;SDS011;1606;51.946;10.558;2024-02-21T08:59:34;17.83;;;7.77;;
3189;SDS011;1606;51.946;10.558;2024-02-21T09:02:03;16.33;;;7.70;;
3189;SDS011;1606;51.946;10.558;2024-02-21T09:04:33;15.10;;;7.33;;
3189;SDS011;1606;51.946;10.558;2024-02-21T09:07:01;22.97;;;8.60;;
3189;SDS011;1606;51.946;10.558;2024-02-21T09:09:29;17.47;;;7.90;;
3189;SDS011;1606;51.946;10.558;2024-02-21T09:11:59;15.47;;;7.13;;
3189;SDS011;1606;51.946;10.558;2024-02-21T09:14:32;17.20;;;9.13;;
3189;SDS011;1606;51.946;10.558;2024-02-21T09:17:00;18.27;;;7.60;;
3189;SDS011;1606;51.946;10.558;2024-02-21T09:19:29;14.83;;;7.40;;
3189;SDS011;1606;51.946;10.558;2024-02-21T09:21:58;15.20;;;8.00;;
3189;SDS011;1606;51.946;10.558;2024-02-21T09:24:26;13.70;;;8.53;;
3189;SDS011;1606;51.946;10.558;2024-02-21T09:26:53;13.80;;;6.80;;
3189;SDS011;1606;51.946;10.558;2024-02-21T09:29:22;13.97;;;7.70;;
3189;SDS011;1606;51.946;10.558;2024-02-21T09:31:53;23.73;;;10.40;;
3189;SDS011;1606;51.946;10.558;2024-02-21T09:34:21;16.00;;;7.17;;
3189;SDS011;1606;51.946;10.558;2024-02-21T09:36:51;15.90;;;6.60;;
3189;SDS011;1606;51.946;10.558;2024-02-21T09:39:19;11.83;;;6.00;;
3189;SDS011;1606;51.946;10.558;2024-02-21T09:41:47;18.67;;;7.13;;
3189;SDS011;1606;51.946;10.558;2024-02-21T09:44:20;15.83;;;7.70;;
3189;SDS011;1606;51.946;10.558;2024-02-21T09:46:51;21.80;;;8.03;;
3189;SDS011;1606;51.946;10.558;2024-02-21T09:49:26;13.93;;;6.43;;
3189;SDS011;1606;51.946;10.558;2024-02-21T09:52:01;13.63;;;7.77;;
3189;SDS011;1606;51.946;10.558;2024-02-21T09:54:32;15.87;;;6.77;;
3189;SDS011;1606;51.946;10.558;2024-02-21T09:57:00;16.90;;;6.87;;
3189;SDS011;1606;51.946;10.558;2024-02-21T09:59:28;13.27;;;6.43;;
3189;SDS011;1606;51.946;10.558;2024-02-21T10:01:59;15.30;;;7.13;;
3189;SDS011;1606;51.946;10.558;2024-02-21T10:04:28;13.17;;;6.60;;
3189;SDS011;1606;51.946;10.558;2024-02-21T10:06:57;14.07;;;6.40;;
3189;SDS011;1606;51.946;10.558;2024-02-21T10:09:27;13.70;;;6.87;;
3189;SDS011;1606;51.946;10.558;2024-02-21T10:12:07;14.33;;;6.73;;
3189;SDS011;1606;51.946;10.558;2024-02-21T10:14:35;11.50;;;6.53;;
3189;SDS011;1606;51.946;10.558;2024-02-21T10:17:03;15.53;;;6.47;;
3189;SDS011;1606;51.946;10.558;2024-02-21T10:19:36;14.97;;;7.60;;
3189;SDS011;1606;51.946;10.558;2024-02-21T10:22:06;16.83;;;8.73;;
3189;SDS011;1606;51.946;10.558;2024-02-21T10:24:37;15.87;;;7.23;;
3189;SDS011;1606;51.946;10.558;2024-02-21T10:27:09;19.97;;;7.93;;
3189;SDS011;1606;51.946;10.558;2024-02-21T10:29:39;12.97;;;6.23;;
3189;SDS011;1606;51.946;10.558;2024-02-21T10:32:08;11.13;;;5.03;;
3189;SDS011;1606;51.946;10.558;2024-02-21T10:34:37;11.47;;;5.80;;
3189;SDS011;1606;51.946;10.558;2024-02-21T10:37:07;10.80;;;4.90;;
3189;SDS011;1606;51.946;10.558;2024-02-21T10:39:37;14.43;;;6.17;;
3189;SDS011;1606;51.946;10.558;2024-02-21T10:42:06;15.70;;;5.60;;
3189;SDS011;1606;51.946;10.558;2024-02-21T10:44:36;11.47;;;5.40;;
3189;SDS011;1606;51.946;10.558;2024-02-21T10:47:07;11.93;;;5.90;;
3189;SDS011;1606;51.946;10.558;2024-02-21T10:49:38;13.97;;;6.30;;
3189;SDS011;1606;51.946;10.558;2024-02-21T10:52:09;11.53;;;6.60;;
3189;SDS011;1606;51.946;10.558;2024-02-21T10:54:45;14.90;;;5.70;;
3189;SDS011;1606;51.946;10.558;2024-02-21T10:57:17;12.47;;;5.80;;
3189;SDS011;1606;51.946;10.558;2024-02-21T10:59:46;10.57;;;5.53;;
3189;SDS011;1606;51.946;10.558;2024-02-21T11:02:15;15.33;;;5.30;;
3189;SDS011;1606;51.946;10.558;2024-02-21T11:04:44;12.87;;;4.87;;
3189;SDS011;1606;51.946;10.558;2024-02-21T11:07:13;13.17;;;5.43;;
3189;SDS011;1606;51.946;10.558;2024-02-21T11:09:49;11.80;;;5.40;;
3189;SDS011;1606;51.946;10.558;2024-02-21T11:12:21;11.90;;;5.20;;
3189;SDS011;1606;51.946;10.558;2024-02-21T11:14:50;11.60;;;5.70;;
3189;SDS011;1606;51.946;10.558;2024-02-21T11:17:18;9.50;;;4.67;;
3189;SDS011;1606;51.946;10.558;2024-02-21T11:19:47;16.83;;;5.43;;
3189;SDS011;1606;51.946;10.558;2024-02-21T11:22:16;13.17;;;4.87;;
3189;SDS011;1606;51.946;10.558;2024-02-21T11:24:46;16.80;;;5.47;;
3189;SDS011;1606;51.946;10.558;2024-02-21T11:27:15;10.47;;;5.13;;
3189;SDS011;1606;51.946;10.558;2024-02-21T11:29:47;14.20;;;6.43;;
3189;SDS011;1606;51.946;10.558;2024-02-21T11:32:18;11.80;;;4.97;;
3189;SDS011;1606;51.946;10.558;2024-02-21T11:34:54;14.53;;;5.60;;
3189;SDS011;1606;51.946;10.558;2024-02-21T11:37:24;10.97;;;4.50;;
3189;SDS011;1606;51.946;10.558;2024-02-21T11:39:53;10.80;;;4.30;;
3189;SDS011;1606;51.946;10.558;2024-02-21T11:42:23;14.83;;;5.80;;
3189;SDS011;1606;51.946;10.558;2024-02-21T11:44:52;8.90;;;4.27;;
3189;SDS011;1606;51.946;10.558;2024-02-21T11:47:23;14.07;;;5.40;;
3189;SDS011;1606;51.946;10.558;2024-02-21T11:49:51;14.20;;;4.77;;
3189;SDS011;1606;51.946;10.558;2024-02-21T11:52:21;11.43;;;4.47;;
3189;SDS011;1606;51.946;10.558;2024-02-21T11:54:52;10.90;;;4.03;;
3189;SDS011;1606;51.946;10.558;2024-02-21T11:57:23;9.70;;;3.90;;
3189;SDS011;1606;51.946;10.558;2024-02-21T11:59:51;10.97;;;4.73;;
3189;SDS011;1606;51.946;10.558;2024-02-21T12:02:25;11.90;;;4.93;;
3189;SDS011;1606;51.946;10.558;2024-02-21T12:04:55;12.87;;;4.30;;
3189;SDS011;1606;51.946;10.558;2024-02-21T12:07:23;15.80;;;4.93;;
3189;SDS011;1606;51.946;10.558;2024-02-21T12:09:51;13.67;;;5.07;;
3189;SDS011;1606;51.946;10.558;2024-02-21T12:12:19;11.43;;;4.60;;
3189;SDS011;1606;51.946;10.558;2024-02-21T12:14:53;14.30;;;4.60;;
3189;SDS011;1606;51.946;10.558;2024-02-21T12:17:22;9.67;;;3.87;;
3189;SDS011;1606;51.946;10.558;2024-02-21T12:19:50;13.27;;;3.83;;
3189;SDS011;1606;51.946;10.558;2024-02-21T12:22:18;11.90;;;3.90;;
3189;SDS011;1606;51.946;10.558;2024-02-21T12:24:46;8.90;;;3.70;;
3189;SDS011;1606;51.946;10.558;2024-02-21T12:27:16;9.77;;;5.03;;
3189;SDS011;1606;51.946;10.558;2024-02-21T12:29:44;13.43;;;4.47;;
3189;SDS011;1606;51.946;10.558;2024-02-21T12:32:13;9.03;;;3.40;;
3189;SDS011;1606;51.946;10.558;2024-02-21T12:34:41;9.30;;;4.00;;
3189;SDS011;1606;51.946;10.558;2024-02-21T12:37:19;11.03;;;4.83;;
3189;SDS011;1606;51.946;10.558;2024-02-21T12:39:49;17.23;;;5.17;;
3189;SDS011;1606;51.946;10.558;2024-02-21T12:42:17;11.73;;;3.90;;
3189;SDS011;1606;51.946;10.558;2024-02-21T12:44:44;11.10;;;4.10;;
3189;SDS011;1606;51.946;10.558;2024-02-21T12:47:14;11.50;;;4.20;;
3189;SDS011;1606;51.946;10.558;2024-02-21T12:49:42;10.83;;;4.23;;
3189;SDS011;1606;51.946;10.558;2024-02-21T12:52:11;10.90;;;4.20;;
3189;SDS011;1606;51.946;10.558;2024-02-21T12:54:40;16.53;;;4.10;;
3189;SDS011;1606;51.946;10.558;2024-02-21T12:57:08;16.43;;;4.93;;
3189;SDS011;1606;51.946;10.558;2024-02-21T12:59:36;13.13;;;4.00;;
3189;SDS011;1606;51.946;10.558;2024-02-21T13:02:04;9.00;;;3.60;;
3189;SDS011;1606;51.946;10.558;2024-02-21T13:04:34;12.73;;;4.07;;
3189;SDS011;1606;51.946;10.558;2024-02-21T13:07:01;10.17;;;3.53;;
3189;SDS011;1606;51.946;10.558;2024-02-21T13:09:29;13.07;;;3.70;;
3189;SDS011;1606;51.946;10.558;2024-02-21T13:11:57;10.80;;;4.73;;
3189;SDS011;1606;51.946;10.558;2024-02-21T13:14:25;16.60;;;3.90;;
3189;SDS011;1606;51.946;10.558;2024-02-21T13:16:53;10.70;;;3.93;;
3189;SDS011;1606;51.946;10.558;2024-02-21T13:19:21;10.87;;;4.27;;
3189;SDS011;1606;51.946;10.558;2024-02-21T13:21:50;11.07;;;3.90;;
3189;SDS011;1606;51.946;10.558;2024-02-21T13:24:20;9.33;;;3.90;;
3189;SDS011;1606;51.946;10.558;2024-02-21T13:26:48;11.57;;;3.87;;
3189;SDS011;1606;51.946;10.558;2024-02-21T13:29:17;11.13;;;3.63;;
3189;SDS011;1606;51.946;10.558;2024-02-21T13:31:46;11.73;;;4.13;;
3189;SDS011;1606;51.946;10.558;2024-02-21T13:34:16;10.67;;;3.50;;
3189;SDS011;1606;51.946;10.558;2024-02-21T13:36:44;10.57;;;3.53;;
3189;SDS011;1606;51.946;10.558;2024-02-21T13:39:14;8.60;;;3.23;;
3189;SDS011;1606;51.946;10.558;2024-02-21T13:41:42;8.50;;;3.17;;
3189;SDS011;1606;51.946;10.558;2024-02-21T13:44:10;10.27;;;3.30;;
3189;SDS011;1606;51.946;10.558;2024-02-21T13:46:39;9.10;;;3.40;;
3189;SDS011;1606;51.946;10.558;2024-02-21T13:49:06;9.40;;;3.10;;
3189;SDS011;1606;51.946;10.558;2024-02-21T13:51:35;9.07;;;3.10;;
3189;SDS011;1606;51.946;10.558;2024-02-21T13:54:03;8.30;;;2.60;;
3189;SDS011;1606;51.946;10.558;2024-02-21T13:56:33;10.33;;;3.07;;
3189;SDS011;1606;51.946;10.558;2024-02-21T13:59:01;10.70;;;3.13;;
3189;SDS011;1606;51.946;10.558;2024-02-21T14:01:29;9.73;;;2.70;;
3189;SDS011;1606;51.946;10.558;2024-02-21T14:03:58;7.63;;;3.20;;
3189;SDS011;1606;51.946;10.558;2024-02-21T14:06:26;7.73;;;3.30;;
3189;SDS011;1606;51.946;10.558;2024-02-21T14:08:54;7.93;;;2.87;;
3189;SDS011;1606;51.946;10.558;2024-02-21T14:11:22;7.70;;;2.80;;
3189;SDS011;1606;51.946;10.558;2024-02-21T14:13:52;7.07;;;2.20;;
3189;SDS011;1606;51.946;10.558;2024-02-21T14:16:23;8.20;;;3.10;;
3189;SDS011;1606;51.946;10.558;2024-02-21T14:18:51;9.40;;;3.30;;
3189;SDS011;1606;51.946;10.558;2024-02-21T14:21:20;8.73;;;2.80;;
3189;SDS011;1606;51.946;10.558;2024-02-21T14:23:48;11.50;;;3.20;;
3189;SDS011;1606;51.946;10.558;2024-02-21T14:26:16;10.33;;;3.23;;
3189;SDS011;1606;51.946;10.558;2024-02-21T14:28:44;8.23;;;2.60;;
3189;SDS011;1606;51.946;10.558;2024-02-21T14:31:14;8.70;;;2.90;;
3189;SDS011;1606;51.946;10.558;2024-02-21T14:33:41;8.70;;;4.00;;
3189;SDS011;1606;51.946;10.558;2024-02-21T14:36:09;7.03;;;2.93;;
3189;SDS011;1606;51.946;10.558;2024-02-21T14:38:38;9.00;;;2.60;;
3189;SDS011;1606;51.946;10.558;2024-02-21T14:41:06;10.37;;;2.90;;
3189;SDS011;1606;51.946;10.558;2024-02-21T14:43:34;9.30;;;3.53;;
3189;SDS011;1606;51.946;10.558;2024-02-21T14:46:02;11.33;;;3.30;;
3189;SDS011;1606;51.946;10.558;2024-02-21T14:48:33;8.67;;;3.00;;
3189;SDS011;1606;51.946;10.558;2024-02-21T14:51:01;11.70;;;3.40;;
3189;SDS011;1606;51.946;10.558;2024-02-21T14:53:29;14.40;;;3.53;;
3189;SDS011;1606;51.946;10.558;2024-02-21T14:55:57;10.70;;;2.83;;